aviador You're here:

YBAS Decoded Metar

ALICE SPRINGS in AUSTRALIA
Report Time2018-05-26 17:00:00
UTC Time2018-05-26 17:22:11
Flight Rules vfr VFR
Wind260° at 03 kt
W.Decomp.*RWY 30: 2.1 kt HW 2.1 kt LCW
RWY 17: 0.3 kt HW 3.0 kt RCW
W.Rank260° ranks 29
Current wind is below 260° avg. (6.1)
Visibility9999 m
Phenomena:N/A
Clouds:N/A
Expected CloudBase > 2,400 ft AGL from Temp-Dew spread
CeilingNone
Temp12°C (ISA +1)
Dew Point06°C (67% RH)
AAT10.0°C
QNH1017 hPa
Density Alt1,834 ft
Elevation1,775 ft
Report Wrong Elevation
Raw Report
YBAS 261700Z AUTO 26003KT 9999 // NCD 12/06 Q1017 RF00.0/000.0=

Extra information for YBAS:More info

Metar Taf Metar & Taf Last 4 Metars F.Rules Stats Wind Profile Meteogram Temp Stats Airport Information Weather charts Add Link Nearby VenuesMetar ALERT Operation Metar Decoded Social comments